createdAt,value
2016-09-13T00:00:15.256Z,1011.57
2016-09-13T00:01:26.462Z,1011.56
2016-09-13T00:02:37.462Z,1011.54
2016-09-13T00:03:48.465Z,1011.53
2016-09-13T00:04:59.470Z,1011.54
2016-09-13T00:06:10.474Z,1011.5
2016-09-13T00:07:21.473Z,1011.49
2016-09-13T00:08:32.478Z,1011.5
2016-09-13T00:09:43.488Z,1011.51
2016-09-13T00:10:54.488Z,1011.49
2016-09-13T00:12:05.501Z,1011.48
2016-09-13T00:13:16.504Z,1011.47
2016-09-13T00:14:27.709Z,1011.45
2016-09-13T00:15:38.707Z,1011.48
2016-09-13T00:16:49.710Z,1011.42
2016-09-13T00:18:00.915Z,1011.44
2016-09-13T00:19:12.120Z,1011.5
2016-09-13T00:20:23.124Z,1011.47
2016-09-13T00:21:34.331Z,1011.44
2016-09-13T00:22:45.341Z,1011.45
2016-09-13T00:23:56.343Z,1011.47
2016-09-13T00:25:07.351Z,1011.48
2016-09-13T00:26:18.560Z,1011.44
2016-09-13T00:27:29.772Z,1011.48
2016-09-13T00:28:40.979Z,1011.46
2016-09-13T00:29:52.184Z,1011.45
2016-09-13T00:31:03.181Z,1011.46
2016-09-13T00:32:14.202Z,1011.46
2016-09-13T00:33:25.198Z,1011.47
2016-09-13T00:34:36.196Z,1011.44
2016-09-13T00:35:47.202Z,1011.43
2016-09-13T00:36:58.400Z,1011.43
2016-09-13T00:38:09.612Z,1011.44
2016-09-13T00:39:20.609Z,1011.44
2016-09-13T00:40:31.618Z,1011.43
2016-09-13T00:41:42.622Z,1011.4
2016-09-13T00:42:53.683Z,1011.35
2016-09-13T00:44:04.903Z,1011.36
2016-09-13T00:45:15.912Z,1011.36
2016-09-13T00:46:26.916Z,1011.4
2016-09-13T00:47:37.913Z,1011.39
2016-09-13T00:48:48.916Z,1011.38
2016-09-13T00:49:59.916Z,1011.35
2016-09-13T00:51:10.945Z,1011.33
2016-09-13T00:52:21.946Z,1011.37
2016-09-13T00:53:32.951Z,1011.37
2016-09-13T00:54:43.950Z,1011.38
2016-09-13T00:55:54.961Z,1011.38
2016-09-13T00:57:05.972Z,1011.33
2016-09-13T00:58:16.973Z,1011.34
2016-09-13T00:59:27.976Z,1011.35
2016-09-13T01:00:39.181Z,1011.35
2016-09-13T01:01:50.380Z,1011.32
2016-09-13T01:03:01.378Z,1011.3
2016-09-13T01:04:12.374Z,1011.27
2016-09-13T01:05:23.389Z,1011.3
2016-09-13T01:06:34.387Z,1011.28
2016-09-13T01:07:45.391Z,1011.27
2016-09-13T01:08:56.393Z,1011.32
2016-09-13T01:10:07.397Z,1011.26
2016-09-13T01:11:18.600Z,1011.28
2016-09-13T01:12:29.604Z,1011.29
2016-09-13T01:13:40.616Z,1011.26
2016-09-13T01:14:51.633Z,1011.27
2016-09-13T01:16:02.645Z,1011.27
2016-09-13T01:17:13.843Z,1011.24
2016-09-13T01:18:25.045Z,1011.22
2016-09-13T01:19:36.053Z,1011.23
2016-09-13T01:20:47.464Z,1011.21
2016-09-13T01:21:58.469Z,1011.22
2016-09-13T01:23:09.681Z,1011.21
2016-09-13T01:24:20.682Z,1011.22
2016-09-13T01:25:31.684Z,1011.22
2016-09-13T01:26:42.887Z,1011.2
2016-09-13T01:27:53.891Z,1011.19
2016-09-13T01:29:04.891Z,1011.16
2016-09-13T01:30:15.895Z,1011.19
2016-09-13T01:31:26.896Z,1011.17
2016-09-13T01:32:38.118Z,1011.15
2016-09-13T01:33:49.125Z,1011.14
2016-09-13T01:35:00.125Z,1011.11
2016-09-13T01:36:11.129Z,1011.15
2016-09-13T01:37:22.343Z,1011.12
2016-09-13T01:38:33.343Z,1011.11
2016-09-13T01:39:44.346Z,1011.12
2016-09-13T01:40:55.346Z,1011.09
2016-09-13T01:42:06.346Z,1011.13
2016-09-13T01:43:17.401Z,1011.12
2016-09-13T01:44:28.415Z,1011.13
2016-09-13T01:45:39.422Z,1011.12
2016-09-13T01:46:50.433Z,1011.15
2016-09-13T01:48:01.440Z,1011.18
2016-09-13T01:49:12.466Z,1011.14
2016-09-13T01:50:23.478Z,1011.14
2016-09-13T01:51:35.093Z,1011.18
2016-09-13T01:52:46.113Z,1011.21
2016-09-13T01:53:57.316Z,1011.15
2016-09-13T01:55:08.530Z,1011.19
2016-09-13T01:56:19.538Z,1011.17
2016-09-13T01:57:30.544Z,1011.2
2016-09-13T01:58:41.753Z,1011.2
2016-09-13T01:59:52.764Z,1011.12
2016-09-13T02:01:03.974Z,1011.19
2016-09-13T02:02:14.972Z,1011.17
2016-09-13T02:03:25.976Z,1011.19
2016-09-13T02:04:36.985Z,1011.16
2016-09-13T02:05:48.187Z,1011.15
2016-09-13T02:06:59.188Z,1011.17
2016-09-13T02:08:10.193Z,1011.17
2016-09-13T02:09:21.208Z,1011.17
2016-09-13T02:10:32.225Z,1011.17
2016-09-13T02:11:43.233Z,1011.16
2016-09-13T02:12:54.439Z,1011.14
2016-09-13T02:14:05.645Z,1011.15
2016-09-13T02:15:16.652Z,1011.15
2016-09-13T02:16:27.648Z,1011.16
2016-09-13T02:17:38.657Z,1011.17
2016-09-13T02:18:49.658Z,1011.17
2016-09-13T02:20:00.672Z,1011.18
2016-09-13T02:21:11.680Z,1011.14
2016-09-13T02:22:22.686Z,1011.14
2016-09-13T02:23:33.694Z,1011.16
2016-09-13T02:24:44.704Z,1011.11
2016-09-13T02:25:55.709Z,1011.16
2016-09-13T02:27:06.911Z,1011.13
2016-09-13T02:28:17.914Z,1011.14
2016-09-13T02:29:28.916Z,1011.1
2016-09-13T02:30:39.918Z,1011.12
2016-09-13T02:31:50.914Z,1011.11
2016-09-13T02:33:01.912Z,1011.07
2016-09-13T02:34:12.916Z,1011.09
2016-09-13T02:35:23.935Z,1011.07
2016-09-13T02:36:35.130Z,1011.07
2016-09-13T02:37:46.132Z,1011.05
2016-09-13T02:38:57.132Z,1011.08
2016-09-13T02:40:08.136Z,1011.08
2016-09-13T02:41:19.145Z,1011.05
2016-09-13T02:42:30.163Z,1011.06
2016-09-13T02:43:41.208Z,1011.06
2016-09-13T02:44:52.215Z,1011.04
2016-09-13T02:46:03.223Z,1011.06
2016-09-13T02:47:14.223Z,1011.05
2016-09-13T02:48:25.231Z,1011.01
2016-09-13T02:49:36.227Z,1011
2016-09-13T02:50:47.228Z,1011
2016-09-13T02:51:58.233Z,1011
2016-09-13T02:53:09.250Z,1011.02
2016-09-13T02:54:20.453Z,1010.99
2016-09-13T02:55:31.477Z,1010.99
2016-09-13T02:56:42.490Z,1011.03
2016-09-13T02:57:53.506Z,1011.03
2016-09-13T02:59:04.714Z,1011.03
2016-09-13T03:00:15.718Z,1011.04
2016-09-13T03:01:26.910Z,1011.06
2016-09-13T03:02:38.112Z,1011.06
2016-09-13T03:03:49.312Z,1011.04
2016-09-13T03:05:00.316Z,1011.04
2016-09-13T03:06:11.320Z,1011.01
2016-09-13T03:07:22.337Z,1011.01
2016-09-13T03:08:33.336Z,1011.04
2016-09-13T03:09:44.341Z,1011.01
2016-09-13T03:10:55.351Z,1011.01
2016-09-13T03:12:06.372Z,1011.01
2016-09-13T03:13:17.574Z,1010.99
2016-09-13T03:14:28.576Z,1010.99
2016-09-13T03:15:39.586Z,1010.94
2016-09-13T03:16:50.581Z,1010.92
2016-09-13T03:18:01.583Z,1010.92
2016-09-13T03:19:12.583Z,1010.92
2016-09-13T03:20:23.591Z,1010.9
2016-09-13T03:21:34.799Z,1010.88
2016-09-13T03:22:45.803Z,1010.91
2016-09-13T03:23:56.804Z,1010.89
2016-09-13T03:25:07.809Z,1010.83
2016-09-13T03:26:18.814Z,1010.84
2016-09-13T03:27:29.823Z,1010.81
2016-09-13T03:28:40.825Z,1010.81
2016-09-13T03:29:51.833Z,1010.81
2016-09-13T03:31:03.042Z,1010.79
2016-09-13T03:32:14.045Z,1010.8
2016-09-13T03:33:25.056Z,1010.76
2016-09-13T03:34:36.064Z,1010.78
2016-09-13T03:35:47.475Z,1010.76
2016-09-13T03:36:58.478Z,1010.78
2016-09-13T03:38:09.485Z,1010.77
2016-09-13T03:39:20.484Z,1010.79
2016-09-13T03:40:31.492Z,1010.74
2016-09-13T03:41:42.489Z,1010.72
2016-09-13T03:42:53.490Z,1010.73
2016-09-13T03:44:04.537Z,1010.72
2016-09-13T03:45:15.557Z,1010.76
2016-09-13T03:46:26.562Z,1010.72
2016-09-13T03:47:37.577Z,1010.74
2016-09-13T03:48:48.576Z,1010.7
2016-09-13T03:49:59.580Z,1010.75
2016-09-13T03:51:10.582Z,1010.74
2016-09-13T03:52:21.587Z,1010.71
2016-09-13T03:53:32.790Z,1010.73
2016-09-13T03:54:43.789Z,1010.71
2016-09-13T03:55:54.793Z,1010.7
2016-09-13T03:57:05.795Z,1010.69
2016-09-13T03:58:16.797Z,1010.68
2016-09-13T03:59:27.800Z,1010.68
2016-09-13T04:00:38.799Z,1010.68
2016-09-13T04:01:50.008Z,1010.66
2016-09-13T04:03:01.007Z,1010.64
2016-09-13T04:04:12.010Z,1010.61
2016-09-13T04:05:23.012Z,1010.6
2016-09-13T04:06:34.015Z,1010.64
2016-09-13T04:07:45.022Z,1010.66
2016-09-13T04:08:56.019Z,1010.63
2016-09-13T04:10:07.024Z,1010.61
2016-09-13T04:11:18.027Z,1010.6
2016-09-13T04:12:29.014Z,1010.6
2016-09-13T04:13:40.022Z,1010.62
2016-09-13T04:14:51.027Z,1010.57
2016-09-13T04:16:02.035Z,1010.59
2016-09-13T04:17:13.244Z,1010.6
2016-09-13T04:18:24.444Z,1010.58
2016-09-13T04:19:35.652Z,1010.58
2016-09-13T04:20:46.861Z,1010.61
2016-09-13T04:21:57.858Z,1010.58
2016-09-13T04:23:08.859Z,1010.59
2016-09-13T04:24:19.856Z,1010.57
2016-09-13T04:25:30.859Z,1010.58
2016-09-13T04:26:41.856Z,1010.64
2016-09-13T04:27:52.873Z,1010.6
2016-09-13T04:29:04.075Z,1010.61
2016-09-13T04:30:15.073Z,1010.58
2016-09-13T04:31:26.070Z,1010.63
2016-09-13T04:32:37.071Z,1010.63
2016-09-13T04:33:48.074Z,1010.62
2016-09-13T04:34:59.278Z,1010.6
2016-09-13T04:36:10.273Z,1010.59
2016-09-13T04:37:21.275Z,1010.59
2016-09-13T04:38:32.679Z,1010.57
2016-09-13T04:39:43.687Z,1010.59
2016-09-13T04:40:54.887Z,1010.61
2016-09-13T04:42:05.893Z,1010.63
2016-09-13T04:43:16.893Z,1010.66
2016-09-13T04:44:28.143Z,1010.64
2016-09-13T04:45:39.143Z,1010.64
2016-09-13T04:46:50.349Z,1010.62
2016-09-13T04:48:01.356Z,1010.61
2016-09-13T04:49:12.355Z,1010.61
2016-09-13T04:50:23.371Z,1010.67
2016-09-13T04:51:34.376Z,1010.67
2016-09-13T04:52:45.369Z,1010.63
2016-09-13T04:53:56.366Z,1010.68
2016-09-13T04:55:07.364Z,1010.68
2016-09-13T04:56:18.360Z,1010.69
2016-09-13T04:57:29.363Z,1010.66
2016-09-13T04:58:40.370Z,1010.72
2016-09-13T04:59:51.367Z,1010.69
2016-09-13T05:01:02.374Z,1010.73
2016-09-13T05:02:13.375Z,1010.73
2016-09-13T05:03:24.375Z,1010.77
2016-09-13T05:04:35.373Z,1010.71
2016-09-13T05:05:46.393Z,1010.76
2016-09-13T05:06:57.391Z,1010.76
2016-09-13T05:08:08.392Z,1010.76
2016-09-13T05:09:19.390Z,1010.81
2016-09-13T05:10:30.393Z,1010.82
2016-09-13T05:11:41.400Z,1010.83
2016-09-13T05:12:52.397Z,1010.8
2016-09-13T05:14:03.389Z,1010.81
2016-09-13T05:15:14.405Z,1010.82
2016-09-13T05:16:25.399Z,1010.83
2016-09-13T05:17:36.404Z,1010.86
2016-09-13T05:18:47.597Z,1010.88
2016-09-13T05:19:58.997Z,1010.88
2016-09-13T05:21:09.998Z,1010.86
2016-09-13T05:22:20.999Z,1010.86
2016-09-13T05:23:32.017Z,1010.9
2016-09-13T05:24:43.017Z,1010.85
2016-09-13T05:25:54.016Z,1010.87
2016-09-13T05:27:05.067Z,1010.89
2016-09-13T05:28:16.269Z,1010.9
2016-09-13T05:29:27.286Z,1010.89
2016-09-13T05:30:38.289Z,1010.87
2016-09-13T05:31:49.291Z,1010.92
2016-09-13T05:33:00.299Z,1010.89
2016-09-13T05:34:11.303Z,1010.91
2016-09-13T05:35:22.311Z,1010.88
2016-09-13T05:36:33.319Z,1010.93
2016-09-13T05:37:44.327Z,1010.91
2016-09-13T05:38:55.333Z,1010.9
2016-09-13T05:40:06.335Z,1010.97
2016-09-13T05:41:17.541Z,1010.97
2016-09-13T05:42:28.544Z,1011
2016-09-13T05:43:39.550Z,1011
2016-09-13T05:44:50.605Z,1011.03
2016-09-13T05:46:01.805Z,1011.03
2016-09-13T05:47:12.809Z,1011.06
2016-09-13T05:48:23.813Z,1011.08
2016-09-13T05:49:35.014Z,1011.09
2016-09-13T05:50:46.016Z,1011.09
2016-09-13T05:51:57.018Z,1011.08
2016-09-13T05:53:08.027Z,1011.05
2016-09-13T05:54:19.031Z,1011.07
2016-09-13T05:55:30.041Z,1011.07
2016-09-13T05:56:41.041Z,1011.07
2016-09-13T05:57:52.046Z,1011.08
2016-09-13T05:59:03.058Z,1011.05
2016-09-13T06:00:14.053Z,1011.09
2016-09-13T06:01:25.458Z,1011.12
2016-09-13T06:02:36.461Z,1011.09
2016-09-13T06:03:47.470Z,1011.06
2016-09-13T06:04:58.478Z,1011.06
2016-09-13T06:06:09.478Z,1011.05
2016-09-13T06:07:20.480Z,1011.07
2016-09-13T06:08:31.487Z,1011.09
2016-09-13T06:09:42.489Z,1011.13
2016-09-13T06:10:53.500Z,1011.14
2016-09-13T06:12:04.497Z,1011.14
2016-09-13T06:13:15.717Z,1011.14
2016-09-13T06:14:26.721Z,1011.12
2016-09-13T06:15:37.723Z,1011.14
2016-09-13T06:16:48.732Z,1011.16
2016-09-13T06:17:59.737Z,1011.16
2016-09-13T06:19:10.743Z,1011.13
2016-09-13T06:20:21.746Z,1011.12
2016-09-13T06:21:32.749Z,1011.12
2016-09-13T06:22:43.743Z,1011.11
2016-09-13T06:23:54.754Z,1011.09
2016-09-13T06:25:05.762Z,1011.09
2016-09-13T06:26:16.767Z,1011.12
2016-09-13T06:27:27.782Z,1011.1
2016-09-13T06:28:38.795Z,1011.13
2016-09-13T06:29:49.815Z,1011.14
2016-09-13T06:31:01.022Z,1011.11
2016-09-13T06:32:12.018Z,1011.13
2016-09-13T06:33:23.007Z,1011.13
2016-09-13T06:34:34.013Z,1011.15
2016-09-13T06:35:45.216Z,1011.17
2016-09-13T06:36:56.217Z,1011.15
2016-09-13T06:38:07.219Z,1011.2
2016-09-13T06:39:18.217Z,1011.2
2016-09-13T06:40:29.426Z,1011.19
2016-09-13T06:41:40.425Z,1011.2
2016-09-13T06:42:51.424Z,1011.26
2016-09-13T06:44:02.425Z,1011.24
2016-09-13T06:45:13.483Z,1011.28
2016-09-13T06:46:24.499Z,1011.33
2016-09-13T06:47:35.508Z,1011.31
2016-09-13T06:48:46.509Z,1011.31
2016-09-13T06:49:57.512Z,1011.32
2016-09-13T06:51:08.525Z,1011.36
2016-09-13T06:52:19.539Z,1011.4
2016-09-13T06:53:30.585Z,1011.38
2016-09-13T06:54:41.799Z,1011.4
2016-09-13T06:55:53.012Z,1011.36
2016-09-13T06:57:04.022Z,1011.4
2016-09-13T06:58:15.035Z,1011.39
2016-09-13T06:59:26.047Z,1011.36
2016-09-13T07:00:37.064Z,1011.38
2016-09-13T07:01:48.086Z,1011.41
2016-09-13T07:02:59.096Z,1011.43
2016-09-13T07:04:10.105Z,1011.44
2016-09-13T07:05:21.108Z,1011.41
2016-09-13T07:06:32.126Z,1011.45
2016-09-13T07:07:43.140Z,1011.46
2016-09-13T07:08:54.160Z,1011.43
2016-09-13T07:10:05.174Z,1011.43
2016-09-13T07:11:16.193Z,1011.49
2016-09-13T07:12:27.198Z,1011.51
2016-09-13T07:13:38.206Z,1011.56
2016-09-13T07:14:49.223Z,1011.64
2016-09-13T07:16:00.444Z,1011.62
2016-09-13T07:17:11.480Z,1011.67
2016-09-13T07:18:22.502Z,1011.91
2016-09-13T07:19:33.516Z,1011.9
2016-09-13T07:20:44.536Z,1012.97
2016-09-13T07:21:55.555Z,1013.22
2016-09-13T07:23:06.980Z,1013.08
2016-09-13T07:24:18.003Z,1012.95
2016-09-13T07:25:29.021Z,1012.93
2016-09-13T07:26:40.247Z,1012.9
2016-09-13T07:27:51.465Z,1012.86
2016-09-13T07:29:02.479Z,1012.73
2016-09-13T07:30:13.497Z,1012.64
2016-09-13T07:31:24.741Z,1012.66
2016-09-13T07:32:35.765Z,1012.73
2016-09-13T07:33:46.984Z,1012.77
2016-09-13T07:34:58.004Z,1012.4
2016-09-13T07:36:09.024Z,1012.22
2016-09-13T07:37:20.039Z,1011.99
2016-09-13T07:38:31.056Z,1011.69
2016-09-13T07:39:42.075Z,1011.65
2016-09-13T07:40:53.290Z,1011.62
2016-09-13T07:42:04.716Z,1011.63
2016-09-13T07:43:15.939Z,1011.65
2016-09-13T07:44:26.962Z,1011.64
2016-09-13T07:45:38.227Z,1011.63
2016-09-13T07:46:49.461Z,1011.56
2016-09-13T07:48:00.479Z,1011.57
2016-09-13T07:49:11.516Z,1011.56
2016-09-13T07:50:22.548Z,1011.55
2016-09-13T07:51:33.573Z,1011.61
2016-09-13T07:52:44.592Z,1011.56
2016-09-13T07:53:55.815Z,1011.62
2016-09-13T07:55:06.839Z,1011.64
2016-09-13T07:56:17.860Z,1011.64
2016-09-13T07:57:29.100Z,1011.64
2016-09-13T07:58:40.128Z,1011.66
2016-09-13T07:59:51.158Z,1011.69
2016-09-13T08:01:02.379Z,1011.7
2016-09-13T08:02:13.406Z,1011.72
2016-09-13T08:03:24.429Z,1011.74
2016-09-13T08:04:35.660Z,1011.71
2016-09-13T08:05:46.682Z,1011.71
2016-09-13T08:06:57.718Z,1011.68
2016-09-13T08:08:08.747Z,1011.71
2016-09-13T08:09:19.768Z,1011.69
2016-09-13T08:10:31.000Z,1011.7
2016-09-13T08:11:42.231Z,1011.68
2016-09-13T08:12:53.263Z,1011.71
2016-09-13T08:14:04.310Z,1011.68
2016-09-13T08:15:15.332Z,1011.68
2016-09-13T08:16:26.361Z,1011.64
2016-09-13T08:17:37.583Z,1011.62
2016-09-13T08:18:48.609Z,1011.72
2016-09-13T08:19:59.637Z,1011.67
2016-09-13T08:21:10.871Z,1011.68
2016-09-13T08:22:21.889Z,1011.71
2016-09-13T08:23:32.915Z,1011.71
2016-09-13T08:24:43.951Z,1011.72
2016-09-13T08:25:54.979Z,1011.74
2016-09-13T08:27:06.007Z,1011.75
2016-09-13T08:28:17.027Z,1011.74
2016-09-13T08:29:28.052Z,1011.74
2016-09-13T08:30:39.067Z,1011.69
2016-09-13T08:31:50.097Z,1011.7
2016-09-13T08:33:01.118Z,1011.71
2016-09-13T08:34:12.146Z,1011.74
2016-09-13T08:35:23.176Z,1011.73
2016-09-13T08:36:34.213Z,1011.74
2016-09-13T08:37:45.242Z,1011.69
2016-09-13T08:38:56.264Z,1011.71
2016-09-13T08:40:07.494Z,1011.71
2016-09-13T08:41:18.524Z,1011.7
2016-09-13T08:42:29.547Z,1011.68
2016-09-13T08:43:40.583Z,1011.68
2016-09-13T08:44:51.611Z,1011.7
2016-09-13T08:46:02.693Z,1011.73
2016-09-13T08:47:13.723Z,1011.7
2016-09-13T08:48:24.761Z,1011.71
2016-09-13T08:49:35.799Z,1011.71
2016-09-13T08:50:47.233Z,1011.63
2016-09-13T08:51:58.259Z,1011.68
2016-09-13T08:53:09.491Z,1011.69
2016-09-13T08:54:20.529Z,1011.7
2016-09-13T08:55:31.554Z,1011.68
2016-09-13T08:56:42.595Z,1011.63
2016-09-13T08:57:53.627Z,1011.65
2016-09-13T08:59:05.067Z,1011.65
2016-09-13T09:00:16.093Z,1011.63
2016-09-13T09:01:27.118Z,1011.6
2016-09-13T09:02:38.140Z,1011.6
2016-09-13T09:03:49.165Z,1011.58
2016-09-13T09:05:00.203Z,1011.58
2016-09-13T09:06:11.223Z,1011.57
2016-09-13T09:07:22.662Z,1011.6
2016-09-13T09:08:33.691Z,1011.59
2016-09-13T09:09:44.915Z,1011.63
2016-09-13T09:10:55.954Z,1011.62
2016-09-13T09:12:06.990Z,1011.64
2016-09-13T09:13:18.013Z,1011.61
2016-09-13T09:14:29.038Z,1011.6
2016-09-13T09:15:40.072Z,1011.59
2016-09-13T09:16:51.109Z,1011.59
2016-09-13T09:18:02.543Z,1011.53
2016-09-13T09:19:13.587Z,1011.57
2016-09-13T09:20:24.815Z,1011.53
2016-09-13T09:21:36.052Z,1011.51
2016-09-13T09:22:47.079Z,1011.52
2016-09-13T09:23:58.106Z,1011.52
2016-09-13T09:25:09.132Z,1011.51
2016-09-13T09:26:20.156Z,1011.52
2016-09-13T09:27:31.179Z,1011.5
2016-09-13T09:28:42.225Z,1011.52
2016-09-13T09:29:53.459Z,1011.58
2016-09-13T09:31:04.480Z,1011.59
2016-09-13T09:32:15.511Z,1011.6
2016-09-13T09:33:26.538Z,1011.64
2016-09-13T09:34:37.575Z,1011.79
2016-09-13T09:35:48.608Z,1011.76
2016-09-13T09:36:59.639Z,1011.64
2016-09-13T09:38:10.666Z,1011.64
2016-09-13T09:39:21.691Z,1011.58
2016-09-13T09:40:32.722Z,1011.58
2016-09-13T09:41:43.748Z,1011.59
2016-09-13T09:42:54.767Z,1011.47
2016-09-13T09:44:05.789Z,1011.48
2016-09-13T09:45:16.813Z,1011.43
2016-09-13T09:46:27.897Z,1011.47
2016-09-13T09:47:38.929Z,1011.46
2016-09-13T09:48:49.958Z,1011.42
2016-09-13T09:50:00.979Z,1011.38
2016-09-13T09:51:12.007Z,1011.38
2016-09-13T09:52:23.033Z,1011.33
2016-09-13T09:53:34.068Z,1011.33
2016-09-13T09:54:45.096Z,1011.31
2016-09-13T09:55:56.113Z,1011.3
2016-09-13T09:57:07.149Z,1011.29
2016-09-13T09:58:18.184Z,1011.28
2016-09-13T09:59:29.219Z,1011.3
2016-09-13T10:00:40.248Z,1011.26
2016-09-13T10:01:51.275Z,1011.25
2016-09-13T10:03:02.295Z,1011.24
2016-09-13T10:04:13.330Z,1011.24
2016-09-13T10:05:24.352Z,1011.24
2016-09-13T10:06:35.383Z,1011.25
2016-09-13T10:07:46.413Z,1011.26
2016-09-13T10:08:57.464Z,1011.24
2016-09-13T10:10:08.504Z,1011.21
2016-09-13T10:11:19.531Z,1011.2
2016-09-13T10:12:30.557Z,1011.13
2016-09-13T10:13:41.584Z,1011.16
2016-09-13T10:14:52.615Z,1011.25
2016-09-13T10:16:03.637Z,1011.27
2016-09-13T10:17:14.679Z,1011.58
2016-09-13T10:18:25.911Z,1012.41
2016-09-13T10:19:36.936Z,1013.43
2016-09-13T10:20:47.964Z,1013.74
2016-09-13T10:21:58.995Z,1013.43
2016-09-13T10:23:10.012Z,1012.61
2016-09-13T10:24:21.035Z,1011.87
2016-09-13T10:25:32.091Z,1011.47
2016-09-13T10:26:43.123Z,1011.3
2016-09-13T10:27:54.153Z,1011.27
2016-09-13T10:29:05.382Z,1011.19
2016-09-13T10:30:16.412Z,1011.11
2016-09-13T10:31:27.641Z,1011.1
2016-09-13T10:32:38.882Z,1011.08
2016-09-13T10:33:49.919Z,1011.04
2016-09-13T10:35:00.942Z,1011.01
2016-09-13T10:36:12.172Z,1011.03
2016-09-13T10:37:23.205Z,1010.99
2016-09-13T10:38:34.244Z,1010.98
2016-09-13T10:39:45.278Z,1010.97
2016-09-13T10:40:56.292Z,1010.92
2016-09-13T10:42:07.327Z,1010.94
2016-09-13T10:43:18.559Z,1010.94
2016-09-13T10:44:29.580Z,1010.89
2016-09-13T10:45:40.612Z,1010.91
2016-09-13T10:46:51.694Z,1010.89
2016-09-13T10:48:02.735Z,1010.92
2016-09-13T10:49:13.775Z,1010.89
2016-09-13T10:50:24.806Z,1010.91
2016-09-13T10:51:35.849Z,1010.9
2016-09-13T10:52:46.875Z,1010.91
2016-09-13T10:53:58.110Z,1010.9
2016-09-13T10:55:09.140Z,1010.89
2016-09-13T10:56:20.164Z,1010.86
2016-09-13T10:57:31.193Z,1010.85
2016-09-13T10:58:42.217Z,1010.82
2016-09-13T10:59:53.243Z,1010.79
2016-09-13T11:01:04.285Z,1010.77
2016-09-13T11:02:15.319Z,1010.79
2016-09-13T11:03:26.339Z,1010.74
2016-09-13T11:04:37.365Z,1010.73
2016-09-13T11:05:48.386Z,1010.72
2016-09-13T11:06:59.411Z,1010.73
2016-09-13T11:08:10.438Z,1010.73
2016-09-13T11:09:21.469Z,1010.7
2016-09-13T11:10:32.494Z,1010.71
2016-09-13T11:11:43.530Z,1010.68
2016-09-13T11:12:54.551Z,1010.67
2016-09-13T11:14:05.784Z,1010.66
2016-09-13T11:15:16.811Z,1010.66
2016-09-13T11:16:28.041Z,1010.63
2016-09-13T11:17:39.270Z,1010.63
2016-09-13T11:18:50.307Z,1010.61
2016-09-13T11:20:01.336Z,1010.6
2016-09-13T11:21:12.367Z,1010.61
2016-09-13T11:22:23.402Z,1010.57
2016-09-13T11:23:34.442Z,1010.55
2016-09-13T11:24:45.676Z,1010.5
2016-09-13T11:25:56.698Z,1010.57
2016-09-13T11:27:07.737Z,1010.52
2016-09-13T11:28:18.773Z,1010.62
2016-09-13T11:29:29.799Z,1010.48
2016-09-13T11:30:41.011Z,1010.64
2016-09-13T11:31:52.035Z,1010.63
2016-09-13T11:33:03.052Z,1010.5
2016-09-13T11:34:14.085Z,1010.69
2016-09-13T11:35:25.509Z,1010.8
2016-09-13T11:36:36.538Z,1010.73
2016-09-13T11:37:47.560Z,1010.97
2016-09-13T11:38:58.587Z,1010.9
2016-09-13T11:40:09.615Z,1010.82
2016-09-13T11:41:20.641Z,1010.92
2016-09-13T11:42:31.679Z,1010.85
2016-09-13T11:43:42.696Z,1010.82
2016-09-13T11:44:53.713Z,1010.73
2016-09-13T11:46:04.742Z,1010.37
2016-09-13T11:47:15.831Z,1010.56
2016-09-13T11:48:26.851Z,1010.57
2016-09-13T11:49:37.889Z,1010.57
2016-09-13T11:50:48.914Z,1010.57
2016-09-13T11:51:59.941Z,1010.39
2016-09-13T11:53:11.164Z,1010.57
2016-09-13T11:54:22.180Z,1010.61
2016-09-13T11:55:33.202Z,1010.58
2016-09-13T11:56:44.427Z,1010.52
2016-09-13T11:57:55.449Z,1010.51
2016-09-13T11:59:06.475Z,1010.59
2016-09-13T12:00:17.495Z,1010.63
2016-09-13T12:01:28.558Z,1010.7
2016-09-13T12:02:39.582Z,1010.81
2016-09-13T12:03:50.609Z,1011.17
2016-09-13T12:05:01.837Z,1011.35
2016-09-13T12:06:12.861Z,1011.02
2016-09-13T12:07:23.887Z,1010.75
2016-09-13T12:08:34.912Z,1010.63
2016-09-13T12:09:45.940Z,1010.68
2016-09-13T12:10:56.960Z,1010.76
2016-09-13T12:12:07.982Z,1010.55
2016-09-13T12:13:18.996Z,1010.3
2016-09-13T12:14:30.031Z,1010.19
2016-09-13T12:15:41.054Z,1010.15
2016-09-13T12:16:52.278Z,1010.15
2016-09-13T12:18:03.312Z,1010.06
2016-09-13T12:19:14.335Z,1010.04
2016-09-13T12:20:25.353Z,1010.16
2016-09-13T12:21:36.375Z,1010.1
2016-09-13T12:22:47.402Z,1010.03
2016-09-13T12:23:58.633Z,1009.99
2016-09-13T12:25:09.658Z,1009.97
2016-09-13T12:26:20.669Z,1010.01
2016-09-13T12:27:31.897Z,1009.97
2016-09-13T12:28:43.125Z,1010.01
2016-09-13T12:29:54.152Z,1010.03
2016-09-13T12:31:05.376Z,1010.04
2016-09-13T12:32:16.401Z,1009.96
2016-09-13T12:33:27.425Z,1009.92
2016-09-13T12:34:38.442Z,1009.89
2016-09-13T12:35:49.460Z,1009.86
2016-09-13T12:37:00.682Z,1009.89
2016-09-13T12:38:11.698Z,1009.89
2016-09-13T12:39:22.928Z,1009.83
2016-09-13T12:40:34.159Z,1009.85
2016-09-13T12:41:45.182Z,1009.85
2016-09-13T12:42:56.207Z,1009.91
2016-09-13T12:44:07.231Z,1009.92
2016-09-13T12:45:18.243Z,1009.86
2016-09-13T12:46:29.466Z,1009.89
2016-09-13T12:47:40.536Z,1009.87
2016-09-13T12:48:51.545Z,1009.9
2016-09-13T12:50:02.569Z,1009.81
2016-09-13T12:51:13.589Z,1009.85
2016-09-13T12:52:24.613Z,1009.82
2016-09-13T12:53:35.625Z,1009.82
2016-09-13T12:54:46.643Z,1009.8
2016-09-13T12:55:57.666Z,1009.78
2016-09-13T12:57:08.685Z,1009.74
2016-09-13T12:58:19.903Z,1009.76
2016-09-13T12:59:30.922Z,1009.74
2016-09-13T13:00:41.950Z,1009.74
2016-09-13T13:01:52.975Z,1009.69
2016-09-13T13:03:03.996Z,1009.71
2016-09-13T13:04:15.011Z,1009.68
2016-09-13T13:05:26.034Z,1009.69
2016-09-13T13:06:37.048Z,1009.67
2016-09-13T13:07:48.067Z,1009.68
2016-09-13T13:08:59.085Z,1009.68
2016-09-13T13:10:10.103Z,1009.68
2016-09-13T13:11:21.316Z,1009.69
2016-09-13T13:12:32.337Z,1009.69
2016-09-13T13:13:43.360Z,1009.69
2016-09-13T13:14:54.386Z,1009.66
2016-09-13T13:16:05.805Z,1009.64
2016-09-13T13:17:16.837Z,1009.65
2016-09-13T13:18:27.852Z,1009.62
2016-09-13T13:19:38.887Z,1009.61
2016-09-13T13:20:49.895Z,1009.6
2016-09-13T13:22:00.918Z,1009.61
2016-09-13T13:23:12.138Z,1009.59
2016-09-13T13:24:23.157Z,1009.54
2016-09-13T13:25:34.166Z,1009.55
2016-09-13T13:26:45.185Z,1009.57
2016-09-13T13:27:56.207Z,1009.56
2016-09-13T13:29:07.230Z,1009.55
2016-09-13T13:30:18.444Z,1009.55
2016-09-13T13:31:29.464Z,1009.52
2016-09-13T13:32:40.697Z,1009.54
2016-09-13T13:33:51.727Z,1009.56
2016-09-13T13:35:02.945Z,1009.5
2016-09-13T13:36:13.967Z,1009.46
2016-09-13T13:37:24.984Z,1009.44
2016-09-13T13:38:36.007Z,1009.47
2016-09-13T13:39:47.022Z,1009.48
2016-09-13T13:40:58.246Z,1009.51
2016-09-13T13:42:09.264Z,1009.45
2016-09-13T13:43:20.289Z,1009.45
2016-09-13T13:44:31.307Z,1009.42
2016-09-13T13:45:42.322Z,1009.4
2016-09-13T13:46:53.345Z,1009.39
2016-09-13T13:48:04.409Z,1009.39
2016-09-13T13:49:15.634Z,1009.38
2016-09-13T13:50:26.854Z,1009.37
2016-09-13T13:51:37.885Z,1009.37
2016-09-13T13:52:48.902Z,1009.34
2016-09-13T13:54:00.122Z,1009.34
2016-09-13T13:55:11.141Z,1009.31
2016-09-13T13:56:22.165Z,1009.27
2016-09-13T13:57:33.189Z,1009.26
2016-09-13T13:58:44.207Z,1009.25
2016-09-13T13:59:55.227Z,1009.25
2016-09-13T14:01:06.242Z,1009.25
2016-09-13T14:02:17.272Z,1009.2
2016-09-13T14:03:28.292Z,1009.19
2016-09-13T14:04:39.314Z,1009.21
2016-09-13T14:05:50.543Z,1009.18
2016-09-13T14:07:01.565Z,1009.19
2016-09-13T14:08:12.587Z,1009.19
2016-09-13T14:09:23.607Z,1009.18
2016-09-13T14:10:34.819Z,1009.2
2016-09-13T14:11:45.844Z,1009.13
2016-09-13T14:12:56.860Z,1009.14
2016-09-13T14:14:07.872Z,1009.11
2016-09-13T14:15:18.886Z,1009.07
2016-09-13T14:16:29.896Z,1009.07
2016-09-13T14:17:40.901Z,1009.09
2016-09-13T14:18:51.917Z,1009.03
2016-09-13T14:20:03.338Z,1009.03
2016-09-13T14:21:14.562Z,1009.07
2016-09-13T14:22:25.575Z,1009.05